Time;durP1;ratioP1;P1;durP2;ratioP2;P2;SDS_P1;SDS_P2;PMS_P1;PMS_P2;Temp;Humidity;BMP_temperature;BMP_pressure;BME280_temperature;BME280_humidity;BME280_pressure;Samples;Min_cycle;Max_cycle;Signal;HPM_P1;HPM_P2
2023/10/14 00:00:26;;;;;;;6.57;3.25;;;;;;;20.32;45.07;94147.13;6212981;23;20283;-89
2023/10/14 00:03:24;;;;;;;7.20;3.30;;;;;;;20.29;45.20;94151.06;6239929;23;20168;-89
2023/10/14 00:06:24;;;;;;;4.82;3.30;;;;;;;20.29;45.49;94150.28;6240750;23;20690;-89
2023/10/14 00:09:11;;;;;;;5.05;3.28;;;;;;;20.20;45.41;94141.47;6240414;23;20196;-89
2023/10/14 00:19:04;;;;;;;7.30;3.50;;;;;;;20.22;45.42;94147.94;6086810;23;20588;-89
2023/10/14 00:28:43;;;;;;;4.88;3.10;;;;;;;20.05;45.66;94152.75;6145429;23;20175;-89
2023/10/14 00:31:29;;;;;;;4.85;3.13;;;;;;;20.04;45.68;94153.81;6131959;23;20296;-89
2023/10/14 00:34:21;;;;;;;;;;;;;;;;;;;;;
2023/10/14 00:40:59;;;;;;;6.30;3.47;;;;;;;19.98;45.71;94132.19;6146198;23;20594;-89
2023/10/14 00:44:03;;;;;;;3.88;3.15;;;;;;;19.99;45.42;94144.19;6209980;23;20284;-90
2023/10/14 00:50:42;;;;;;;5.43;3.20;;;;;;;20.03;45.44;94131.34;6239609;23;20267;-90
2023/10/14 00:53:27;;;;;;;5.50;2.55;;;;;;;20.04;45.44;94126.91;6240381;23;20360;-89
2023/10/14 00:56:22;;;;;;;7.10;3.30;;;;;;;20.07;45.30;94108.84;6240377;23;20323;-90
2023/10/14 00:59:22;;;;;;;4.82;3.38;;;;;;;20.05;45.41;94136.31;6233229;23;20200;-89
2023/10/14 01:02:39;;;;;;;;;;;;;;;;;;;;;
2023/10/14 01:08:20;;;;;;;6.50;3.45;;;;;;;20.00;45.43;94137.13;6154020;23;20179;-89
2023/10/14 01:11:03;;;;;;;4.10;3.00;;;;;;;20.02;45.52;94145.47;6240604;23;20251;-88
2023/10/14 01:13:32;;;;;;;4.40;3.33;;;;;;;19.98;45.39;94144.47;6240683;23;20192;-90
2023/10/14 01:16:08;;;;;;;5.63;3.00;;;;;;;19.95;45.63;94142.38;6240206;23;20643;-88
2023/10/14 01:18:43;;;;;;;5.20;3.80;;;;;;;19.91;45.74;94143.97;6240390;23;20224;-90
2023/10/14 01:21:43;;;;;;;4.97;3.40;;;;;;;19.91;45.66;94142.13;6240367;23;20184;-90
2023/10/14 01:31:11;;;;;;;6.93;3.20;;;;;;;19.89;45.99;94153.91;6235463;23;20215;-89
2023/10/14 01:33:49;;;;;;;7.15;3.25;;;;;;;19.89;46.03;94153.91;6238757;23;20169;-89
2023/10/14 01:49:32;;;;;;;5.35;3.20;;;;;;;19.89;45.39;94107.66;6144759;23;20916;-89
2023/10/14 01:52:33;;;;;;;4.45;3.17;;;;;;;19.92;45.44;94099.28;6090626;23;20171;-88
2023/10/14 01:55:25;;;;;;;4.10;2.70;;;;;;;19.95;45.39;94093.53;6185734;23;20197;-88
2023/10/14 02:01:04;;;;;;;4.78;2.95;;;;;;;19.97;45.45;94088.03;6239903;23;20574;-89
2023/10/14 02:03:41;;;;;;;4.20;2.95;;;;;;;20.05;45.40;94076.22;6240322;23;20207;-89
2023/10/14 02:06:17;;;;;;;5.20;3.20;;;;;;;20.07;45.12;94081.94;6240012;23;20171;-89
2023/10/14 02:09:03;;;;;;;4.90;2.88;;;;;;;20.06;45.17;94073.31;6239966;23;20247;-89
2023/10/14 02:11:40;;;;;;;5.43;3.25;;;;;;;20.12;44.95;94071.47;6239155;23;20667;-88
2023/10/14 02:17:48;;;;;;;5.50;2.80;;;;;;;20.18;45.10;94070.38;6239823;22;20670;-89
2023/10/14 02:20:44;;;;;;;;;;;;;;;;;;;;;
2023/10/14 02:23:13;;;;;;;4.68;3.30;;;;;;;20.15;45.05;94074.31;6242050;23;20180;-90
2023/10/14 02:26:27;;;;;;;5.88;2.85;;;;;;;20.19;45.00;94077.19;6241831;23;20169;-89
2023/10/14 02:29:06;;;;;;;5.65;3.13;;;;;;;20.15;44.77;94076.94;6242020;23;20193;-90
2023/10/14 02:35:37;;;;;;;4.55;2.90;;;;;;;20.13;44.97;94076.41;6240333;23;20504;-89
2023/10/14 02:42:25;;;;;;;;;;;;;;;;;;;;;
2023/10/14 02:45:33;;;;;;;6.47;2.95;;;;;;;20.10;45.15;94078.78;6241324;23;20165;-88
2023/10/14 02:48:52;;;;;;;4.32;3.10;;;;;;;20.07;44.98;94081.94;6089315;23;20172;-89
2023/10/14 02:51:31;;;;;;;4.78;3.40;;;;;;;20.00;45.22;94095.34;6101091;23;20196;-89
2023/10/14 02:54:14;;;;;;;5.25;3.35;;;;;;;19.94;45.28;94094.56;6211261;23;20170;-89
2023/10/14 02:56:56;;;;;;;5.15;2.85;;;;;;;19.91;45.54;94099.56;6211352;23;20184;-89
2023/10/14 02:59:35;;;;;;;3.83;2.83;;;;;;;20.00;45.04;94079.66;6211173;23;20264;-90
2023/10/14 03:02:14;;;;;;;3.85;2.72;;;;;;;20.05;45.31;94090.06;6211575;23;20251;-89
2023/10/14 03:05:32;;;;;;;4.85;2.97;;;;;;;20.13;45.25;94079.03;6211370;23;20176;-88
2023/10/14 03:11:57;;;;;;;4.13;2.95;;;;;;;20.15;45.71;94104.91;6145207;23;20178;-89
2023/10/14 03:17:40;;;;;;;6.72;2.80;;;;;;;19.99;45.87;94125.13;6182556;23;20656;-89
2023/10/14 03:23:49;;;;;;;;;;;;;;;;;;;;;
2023/10/14 03:29:54;;;;;;;6.28;3.40;;;;;;;20.05;46.03;94112.78;6189357;23;20193;-89
2023/10/14 03:32:42;;;;;;;4.32;2.90;;;;;;;19.97;46.07;94108.94;6210666;23;20173;-89
2023/10/14 03:35:32;;;;;;;5.18;2.97;;;;;;;19.98;46.36;94131.41;6210094;23;20180;-89
2023/10/14 03:38:33;;;;;;;4.22;2.70;;;;;;;19.97;45.60;94096.66;6210562;23;20189;-89
2023/10/14 03:49:41;;;;;;;5.07;3.00;;;;;;;20.49;44.63;94040.34;6208705;23;20197;-89
2023/10/14 03:52:13;;;;;;;4.85;2.80;;;;;;;20.59;44.45;94044.72;6211315;23;20597;-89
2023/10/14 03:57:48;;;;;;;5.28;2.95;;;;;;;20.75;44.21;94048.72;6208198;23;20195;-89
2023/10/14 04:00:39;;;;;;;5.72;3.30;;;;;;;20.87;44.09;94037.88;6211192;23;20197;-89
2023/10/14 04:03:51;;;;;;;6.20;3.25;;;;;;;20.87;44.38;94048.34;6210206;23;20552;-89
2023/10/14 04:06:36;;;;;;;;;;;;;;;;;;;;;
2023/10/14 04:12:40;;;;;;;6.18;3.17;;;;;;;20.96;44.11;94044.84;6208517;23;20173;-89
2023/10/14 04:18:24;;;;;;;4.57;3.10;;;;;;;21.04;44.51;94036.38;6209071;23;20174;-89
2023/10/14 04:21:35;;;;;;;7.55;3.40;;;;;;;21.13;44.48;94041.78;6210096;23;20652;-88
2023/10/14 04:24:18;;;;;;;6.60;3.00;;;;;;;21.20;44.40;94052.69;6210513;23;20205;-90
2023/10/14 04:33:19;;;;;;;7.63;4.00;;;;;;;21.13;45.42;94114.28;6205846;23;20243;-89
2023/10/14 04:39:15;;;;;;;7.03;3.20;;;;;;;21.13;46.25;94153.53;6209668;23;20881;-89
2023/10/14 04:45:31;;;;;;;5.25;3.22;;;;;;;21.16;47.18;94192.25;6210330;23;20207;-89
2023/10/14 04:48:26;;;;;;;6.13;3.30;;;;;;;21.14;47.70;94210.06;6210904;23;20771;-89
2023/10/14 04:51:00;;;;;;;4.80;3.10;;;;;;;21.16;47.93;94223.66;6210046;23;20228;-89
2023/10/14 04:57:21;;;;;;;6.05;3.53;;;;;;;21.17;48.67;94261.84;6208344;23;20177;-89
2023/10/14 05:06:14;;;;;;;7.70;3.47;;;;;;;21.25;49.75;94303.19;6117637;23;20171;-89
2023/10/14 05:09:09;;;;;;;10.98;3.50;;;;;;;21.16;50.09;94325.75;6206437;23;20193;-88
2023/10/14 05:12:30;;;;;;;4.07;3.25;;;;;;;21.20;50.27;94319.72;6209573;23;20181;-89
2023/10/14 05:15:41;;;;;;;7.88;3.47;;;;;;;21.24;50.26;94346.13;6170602;23;20181;-89
2023/10/14 05:18:35;;;;;;;6.90;3.42;;;;;;;21.22;50.54;94343.00;6136842;23;20170;-89
2023/10/14 05:22:23;;;;;;;;;;;;;;;;;;;;;
2023/10/14 05:25:15;;;;;;;5.13;3.90;;;;;;;21.25;50.80;94372.03;6178507;23;20173;-89
2023/10/14 05:34:04;;;;;;;7.35;3.92;;;;;;;21.23;51.05;94392.47;6212376;23;20177;-90
2023/10/14 05:40:13;;;;;;;4.90;3.50;;;;;;;21.29;51.46;94390.59;6217872;23;20201;-89
2023/10/14 05:43:06;;;;;;;6.22;4.03;;;;;;;21.25;51.70;94418.38;6132255;23;20549;-89
2023/10/14 05:45:34;;;;;;;4.93;3.90;;;;;;;21.18;51.91;94444.03;6211291;23;20177;-88
2023/10/14 05:48:03;;;;;;;7.80;4.28;;;;;;;21.18;52.59;94462.34;6215104;23;20184;-87
2023/10/14 05:50:31;;;;;;;7.18;3.95;;;;;;;21.11;53.07;94485.44;6214457;23;20193;-87
2023/10/14 05:52:59;;;;;;;4.75;4.25;;;;;;;21.09;52.80;94483.09;6214724;23;20200;-87
2023/10/14 05:55:26;;;;;;;6.97;4.20;;;;;;;21.17;53.10;94489.59;6215754;23;20189;-86
2023/10/14 05:58:06;;;;;;;6.47;4.18;;;;;;;21.19;53.30;94509.22;6212714;23;20562;-88
2023/10/14 06:00:42;;;;;;;5.80;3.72;;;;;;;21.20;53.23;94512.66;6211702;23;20527;-88
2023/10/14 06:03:19;;;;;;;4.35;3.90;;;;;;;21.14;53.70;94532.81;6212202;23;20157;-88
2023/10/14 06:06:24;;;;;;;4.70;3.90;;;;;;;21.16;53.93;94551.66;6211688;23;20175;-88
2023/10/14 06:09:21;;;;;;;8.63;4.43;;;;;;;21.04;54.55;94565.03;6211279;23;20194;-88
2023/10/14 06:15:40;;;;;;;5.45;4.25;;;;;;;21.08;54.50;94595.91;6204165;23;20185;-88
2023/10/14 06:22:02;;;;;;;7.53;3.80;;;;;;;21.08;54.63;94609.78;6145437;23;20204;-89
2023/10/14 06:25:26;;;;;;;5.32;4.47;;;;;;;21.00;55.32;94631.25;6179532;23;20177;-89
2023/10/14 06:27:56;;;;;;;7.10;3.92;;;;;;;21.04;55.41;94640.94;6089501;23;20670;-88
2023/10/14 06:30:54;;;;;;;6.10;3.75;;;;;;;20.96;55.83;94657.19;6089483;23;20204;-89
2023/10/14 06:37:21;;;;;;;;;;;;;;;;;;;;;
2023/10/14 06:52:20;;;;;;;7.95;4.05;;;;;;;20.95;56.66;94721.03;6090328;23;20219;-89
2023/10/14 09:00:36;;;;;;;6.10;4.15;;;;;;;21.00;59.42;94872.81;5994429;23;20693;-90
2023/10/14 09:04:08;;;;;;;;;;;;;;;;;;;;;
2023/10/14 09:28:16;;;;;;;6.07;3.75;;;;;;;20.88;58.52;94840.88;5859446;24;20347;-87
2023/10/14 09:31:12;;;;;;;7.28;4.00;;;;;;;21.02;58.34;94841.94;5919560;24;20251;-87
2023/10/14 10:36:13;;;;;;;5.93;3.97;;;;;;;20.51;58.91;94866.41;6229068;22;20205;-87
2023/10/14 10:38:42;;;;;;;3.83;3.35;;;;;;;20.51;59.39;94869.03;6239731;22;20199;-87
2023/10/14 10:41:26;;;;;;;7.63;3.83;;;;;;;20.49;59.17;94873.72;6242326;23;20176;-86
2023/10/14 10:44:04;;;;;;;6.25;3.45;;;;;;;20.48;59.50;94872.16;6242344;23;20211;-87
2023/10/14 10:46:50;;;;;;;4.70;3.45;;;;;;;20.53;58.99;94849.44;6241525;23;20160;-87
2023/10/14 10:59:04;;;;;;;5.50;3.80;;;;;;;20.90;58.84;94830.16;6090194;23;20237;-86
2023/10/14 11:01:37;;;;;;;5.60;3.78;;;;;;;21.02;58.20;94821.00;6242097;23;20193;-86
2023/10/14 11:04:19;;;;;;;6.35;3.70;;;;;;;21.12;57.77;94796.69;6241698;23;20188;-87
2023/10/14 11:06:46;;;;;;;5.68;4.03;;;;;;;21.19;57.69;94791.16;6240843;23;20173;-86
2023/10/14 11:09:18;;;;;;;7.78;3.42;;;;;;;21.30;57.35;94780.47;6242036;22;20200;-86
2023/10/14 11:12:00;;;;;;;6.75;3.65;;;;;;;21.35;57.00;94754.28;6242268;23;20164;-86
2023/10/14 11:14:31;;;;;;;5.30;3.30;;;;;;;21.34;57.37;94765.03;6241512;23;20240;-86
2023/10/14 11:17:00;;;;;;;4.95;3.15;;;;;;;21.31;57.16;94762.94;6241732;23;20220;-86
2023/10/14 11:19:30;;;;;;;6.47;3.60;;;;;;;21.44;57.06;94751.91;6240868;22;20199;-87
2023/10/14 11:22:06;;;;;;;3.47;3.17;;;;;;;21.55;56.84;94747.47;6242041;23;20200;-88
2023/10/14 11:24:42;;;;;;;6.00;3.72;;;;;;;21.68;56.31;94720.69;6241643;23;20183;-86
2023/10/14 11:27:10;;;;;;;4.63;3.40;;;;;;;21.85;56.19;94712.50;6241517;23;20168;-86
2023/10/14 11:29:57;;;;;;;4.47;2.90;;;;;;;21.93;55.82;94675.28;6241723;22;20193;-87
2023/10/14 11:32:51;;;;;;;4.50;3.08;;;;;;;21.82;56.00;94673.72;6242194;23;20157;-87
2023/10/14 11:35:24;;;;;;;3.90;3.20;;;;;;;21.68;56.22;94671.69;6240097;23;20168;-86
2023/10/14 11:38:08;;;;;;;4.85;2.90;;;;;;;21.56;56.64;94699.22;6242103;23;20157;-87
2023/10/14 11:43:21;;;;;;;4.38;2.75;;;;;;;21.56;56.70;94722.81;6241176;23;20545;-87
2023/10/14 11:46:01;;;;;;;5.03;2.65;;;;;;;21.57;57.15;94712.06;6241745;23;20172;-87
2023/10/14 11:54:41;;;;;;;3.67;2.55;;;;;;;21.82;56.33;94671.91;6214074;23;20226;-89
2023/10/14 11:57:33;;;;;;;8.27;2.97;;;;;;;21.97;55.91;94629.88;6241614;23;20765;-89
2023/10/14 12:00:27;;;;;;;2.67;2.47;;;;;;;22.16;55.41;94640.56;6241096;22;20595;-88
2023/10/14 12:06:11;;;;;;;3.85;2.65;;;;;;;22.54;54.93;94593.59;6236848;23;20252;-89
2023/10/14 12:09:19;;;;;;;5.10;3.00;;;;;;;22.69;54.01;94567.25;6240548;22;20564;-89
2023/10/14 12:11:51;;;;;;;4.10;2.60;;;;;;;22.72;53.70;94545.66;6148057;23;20233;-88
2023/10/14 12:14:17;;;;;;;4.00;2.55;;;;;;;22.74;53.57;94557.47;6241836;23;20166;-88
2023/10/14 12:16:48;;;;;;;3.22;2.58;;;;;;;22.65;53.81;94551.25;6241713;23;20173;-88
2023/10/14 12:19:18;;;;;;;14.30;3.08;;;;;;;22.60;54.23;94558.38;6241120;22;20589;-87
2023/10/14 12:21:44;;;;;;;3.83;2.30;;;;;;;22.37;54.03;94544.16;6242703;23;20745;-86
2023/10/14 12:24:11;;;;;;;4.85;2.47;;;;;;;22.35;54.28;94559.38;6241324;23;20651;-85
2023/10/14 12:26:43;;;;;;;4.70;2.80;;;;;;;22.32;54.80;94584.31;6241121;23;20272;-86
2023/10/14 12:29:31;;;;;;;2.83;2.50;;;;;;;22.32;54.48;94560.72;6242008;22;20224;-89
2023/10/14 12:32:12;;;;;;;3.85;2.40;;;;;;;22.38;54.05;94556.22;6241093;23;20176;-89
2023/10/14 12:34:43;;;;;;;4.80;2.60;;;;;;;22.42;54.14;94566.94;6240588;23;20252;-89
2023/10/14 12:43:50;;;;;;;6.05;3.05;;;;;;;22.36;53.80;94529.47;6238901;23;20224;-86
2023/10/14 12:46:31;;;;;;;4.72;3.50;;;;;;;22.28;53.29;94519.59;6241001;23;20228;-86
2023/10/14 12:48:58;;;;;;;4.03;3.60;;;;;;;22.25;53.48;94526.16;6241222;22;20203;-86
2023/10/14 12:51:30;;;;;;;5.15;2.72;;;;;;;22.14;53.63;94529.91;6240970;23;20184;-85
2023/10/14 12:53:59;;;;;;;4.88;2.55;;;;;;;22.00;54.34;94563.06;6240808;23;20242;-87
2023/10/14 12:56:27;;;;;;;3.65;2.80;;;;;;;21.75;57.01;94675.84;6240878;23;20752;-85
2023/10/14 12:58:56;;;;;;;2.95;2.65;;;;;;;21.79;57.49;94714.34;6241800;22;20197;-85
2023/10/14 13:01:23;;;;;;;3.30;2.80;;;;;;;21.80;57.09;94700.22;6241159;23;20424;-86
2023/10/14 13:03:53;;;;;;;4.43;2.72;;;;;;;21.78;57.09;94704.94;6241386;23;20196;-86
2023/10/14 13:06:22;;;;;;;7.95;2.70;;;;;;;21.74;56.95;94695.28;6241147;23;20587;-84
2023/10/14 13:08:50;;;;;;;2.92;2.55;;;;;;;21.68;56.45;94682.19;6240704;22;20838;-85
2023/10/14 13:11:17;;;;;;;4.40;3.25;;;;;;;21.70;56.86;94705.50;6240948;23;20181;-85
2023/10/14 13:13:46;;;;;;;4.20;3.08;;;;;;;21.56;57.48;94733.28;6240078;23;20791;-86
2023/10/14 13:16:13;;;;;;;4.43;2.70;;;;;;;21.55;58.11;94750.84;6240630;23;20255;-86
2023/10/14 13:18:40;;;;;;;3.63;2.30;;;;;;;21.39;59.24;94801.69;6240879;22;20165;-85
2023/10/14 13:21:07;;;;;;;4.03;2.17;;;;;;;21.27;60.56;94841.22;6241150;23;20630;-85
2023/10/14 13:23:34;;;;;;;4.03;2.53;;;;;;;21.22;61.15;94877.09;6240357;23;20508;-85
2023/10/14 13:26:02;;;;;;;3.60;2.50;;;;;;;21.23;61.92;94905.63;6241012;23;20184;-85
2023/10/14 13:28:28;;;;;;;4.80;2.60;;;;;;;21.24;62.00;94901.19;6240549;22;20516;-86
2023/10/14 13:30:58;;;;;;;4.82;2.75;;;;;;;21.24;62.25;94922.91;6241218;23;20180;-85
2023/10/14 13:33:24;;;;;;;3.65;3.03;;;;;;;21.17;63.21;94947.72;6240144;23;20176;-86
2023/10/14 13:35:55;;;;;;;4.57;2.83;;;;;;;21.19;63.30;94959.53;6241281;23;20256;-85
2023/10/14 13:38:22;;;;;;;3.45;2.80;;;;;;;21.15;63.38;94947.22;6240689;22;20564;-85
2023/10/14 13:40:53;;;;;;;3.38;2.55;;;;;;;21.09;63.42;94945.63;6241959;23;20177;-85
2023/10/14 13:43:20;;;;;;;6.40;3.08;;;;;;;21.12;63.31;94934.66;6240757;23;20610;-85
2023/10/14 13:45:47;;;;;;;3.50;2.80;;;;;;;21.12;62.62;94918.94;6240094;23;20179;-85
2023/10/14 13:48:14;;;;;;;3.55;2.53;;;;;;;21.06;61.76;94889.34;6240798;23;20173;-85
2023/10/14 13:50:41;;;;;;;3.85;2.30;;;;;;;20.94;62.28;94900.06;6240521;22;20282;-85
2023/10/14 13:53:12;;;;;;;3.45;2.20;;;;;;;20.86;61.88;94886.66;6240559;23;20262;-85
2023/10/14 13:55:39;;;;;;;3.10;2.60;;;;;;;20.81;61.00;94868.31;6240378;23;20164;-85
2023/10/14 13:58:11;;;;;;;2.90;2.10;;;;;;;20.65;63.15;94938.91;6240695;23;20173;-85
2023/10/14 14:00:40;;;;;;;3.35;2.00;;;;;;;20.47;65.86;95032.72;6239973;22;20743;-86
2023/10/14 14:03:15;;;;;;;5.43;2.30;;;;;;;20.32;69.07;95101.34;6241199;23;20201;-86
2023/10/14 14:05:48;;;;;;;2.35;1.52;;;;;;;20.02;72.26;95156.75;6240584;23;20649;-86
2023/10/14 14:11:34;;;;;;;2.03;1.65;;;;;;;19.86;74.91;95223.72;6237801;23;20184;-84
2023/10/14 14:14:07;;;;;;;3.05;1.77;;;;;;;19.81;75.16;95218.47;6177993;23;20251;-86
2023/10/14 14:17:00;;;;;;;2.20;1.50;;;;;;;19.86;74.91;95213.28;6242574;23;20613;-87
2023/10/14 14:19:57;;;;;;;;;;;;;;;;;;;;;
2023/10/14 14:28:10;;;;;;;2.50;1.60;;;;;;;19.73;75.82;95270.31;6240564;23;20173;-87
2023/10/14 14:31:29;;;;;;;4.70;1.83;;;;;;;19.73;77.60;95312.13;6239521;22;20210;-87
2023/10/14 14:34:01;;;;;;;2.05;1.33;;;;;;;19.56;78.21;95312.16;6058236;23;20181;-87
2023/10/14 14:36:46;;;;;;;2.08;1.58;;;;;;;19.54;77.65;95320.22;6060899;23;20177;-87
2023/10/14 14:39:40;;;;;;;1.55;1.25;;;;;;;19.51;76.78;95305.03;6076824;23;20283;-88
2023/10/14 14:42:10;;;;;;;3.95;2.50;;;;;;;19.44;76.29;95272.22;6212831;23;20259;-87
2023/10/14 14:44:46;;;;;;;3.17;2.65;;;;;;;19.34;77.10;95285.94;6212286;23;20180;-86
2023/10/14 14:50:51;;;;;;;0.90;0.73;;;;;;;19.43;74.65;95216.63;6211544;23;20235;-86
2023/10/14 14:53:28;;;;;;;1.17;0.90;;;;;;;19.37;73.75;95190.69;6211812;23;20175;-88
2023/10/14 14:56:37;;;;;;;;;;;;;;;;;;;;;
2023/10/14 15:02:47;;;;;;;1.20;0.95;;;;;;;19.44;72.46;95202.50;6127877;23;20202;-88
2023/10/14 15:08:16;;;;;;;1.67;1.00;;;;;;;18.98;78.38;95362.88;6206219;23;20208;-88
2023/10/14 15:13:40;;;;;;;15.10;13.68;;;;;;;18.46;82.24;95409.03;6211777;23;20196;-88
2023/10/14 15:16:17;;;;;;;8.90;7.70;;;;;;;18.30;85.42;95460.03;6213463;23;20248;-89
2023/10/14 15:19:08;;;;;;;0.80;0.80;;;;;;;18.32;83.72;95444.97;6212953;23;20201;-88
2023/10/14 15:22:02;;;;;;;2.35;1.00;;;;;;;18.30;83.69;95465.25;6205826;23;20252;-88
2023/10/14 15:24:56;;;;;;;1.92;1.10;;;;;;;18.34;82.36;95460.38;6208934;23;20197;-88
2023/10/14 15:28:23;;;;;;;;;;;;;;;;;;;;;
2023/10/14 15:38:00;;;;;;;;;;;;;;;;;;;;;
2023/10/14 17:12:28;;;;;;;1.17;1.08;;;;;;;17.52;89.27;95718.78;6087644;23;20168;-89
2023/10/14 17:24:21;;;;;;;1.50;1.20;;;;;;;17.41;89.56;95710.91;6239948;23;20199;-87
2023/10/14 17:26:59;;;;;;;1.10;1.10;;;;;;;17.36;89.08;95715.97;6242522;23;20203;-91
2023/10/14 17:32:23;;;;;;;2.22;1.30;;;;;;;17.24;88.73;95729.69;6242218;23;20165;-90
2023/10/14 17:34:55;;;;;;;3.22;1.23;;;;;;;17.22;88.87;95743.94;6212394;23;20184;-89
2023/10/14 17:37:44;;;;;;;1.23;1.10;;;;;;;17.19;88.18;95739.94;6240712;23;20161;-89
2023/10/14 17:40:27;;;;;;;2.35;1.42;;;;;;;17.15;89.94;95777.78;6066620;23;20750;-90
2023/10/14 18:06:24;;;;;;;;;;;;;;;;;;;;;
2023/10/14 18:09:59;;;;;;;4.85;2.50;;;;;;;15.90;82.71;95692.78;5961168;23;20198;-89
2023/10/14 18:13:21;;;;;;;1.27;1.00;;;;;;;15.95;79.64;95635.03;6001396;23;20186;-89
2023/10/14 18:19:45;;;;;;;1.45;1.30;;;;;;;15.73;79.57;95655.31;6086637;23;20278;-88
2023/10/14 18:23:02;;;;;;;;;;;;;;;;;;;;;
2023/10/14 18:25:57;;;;;;;3.30;1.33;;;;;;;15.79;78.75;95647.47;6190594;23;20513;-88
2023/10/14 18:28:38;;;;;;;1.50;1.33;;;;;;;15.68;78.91;95636.94;6211225;23;20245;-89
2023/10/14 18:31:27;;;;;;;;;;;;;;;;;;;;;
2023/10/14 18:34:32;;;;;;;1.63;1.33;;;;;;;15.45;77.35;95614.84;6209075;23;20161;-88
2023/10/14 18:43:25;;;;;;;2.42;1.73;;;;;;;15.36;76.96;95633.47;6107939;23;20186;-88
2023/10/14 18:45:56;;;;;;;1.63;1.50;;;;;;;15.26;77.00;95631.28;6209770;23;20543;-88
2023/10/14 18:55:27;;;;;;;2.08;1.52;;;;;;;15.24;76.56;95648.84;6117139;23;20698;-89
2023/10/14 19:02:05;;;;;;;2.55;1.60;;;;;;;15.28;75.52;95631.88;6003467;23;20637;-88
2023/10/14 19:12:05;;;;;;;2.08;1.73;;;;;;;14.91;76.18;95653.31;6019549;23;20628;-88
2023/10/14 19:14:52;;;;;;;;;;;;;;;;;;;;;
2023/10/14 19:17:36;;;;;;;2.25;1.60;;;;;;;14.91;74.38;95625.59;6211768;23;20170;-88
2023/10/14 19:20:31;;;;;;;3.92;2.10;;;;;;;14.97;73.30;95606.63;6211494;23;20189;-89
2023/10/14 19:33:46;;;;;;;5.28;2.60;;;;;;;14.78;71.64;95568.59;6178213;23;20169;-88
2023/10/14 19:36:19;;;;;;;3.25;2.08;;;;;;;14.76;71.03;95557.63;6089251;23;20260;-89
2023/10/14 19:39:35;;;;;;;;;;;;;;;;;;;;;
2023/10/14 19:43:00;;;;;;;2.85;1.80;;;;;;;14.70;69.66;95525.53;6090237;23;20240;-89
2023/10/14 19:45:48;;;;;;;4.10;2.13;;;;;;;14.67;68.64;95494.84;6205327;23;20220;-88
2023/10/14 19:48:27;;;;;;;3.28;2.42;;;;;;;14.76;68.21;95485.84;6211960;23;20189;-89
2023/10/14 19:51:29;;;;;;;2.60;2.00;;;;;;;14.62;68.83;95502.44;6212257;23;20154;-88
2023/10/14 19:54:36;;;;;;;6.93;2.40;;;;;;;14.51;68.13;95459.00;6210983;23;20528;-88
2023/10/14 20:01:04;;;;;;;;;;;;;;;;;;;;;
2023/10/14 20:04:22;;;;;;;;;;;;;;;;;;;;;
2023/10/14 20:31:10;;;;;;;3.30;1.75;;;;;;;14.36;63.95;95362.59;6115679;23;20759;-89
2023/10/14 20:37:27;;;;;;;4.85;1.90;;;;;;;14.40;63.97;95387.91;6062313;23;20544;-89
2023/10/14 20:40:25;;;;;;;2.75;1.67;;;;;;;14.45;64.27;95392.47;6089003;23;20206;-89
2023/10/14 20:50:47;;;;;;;4.93;1.98;;;;;;;14.52;65.25;95456.22;6059092;23;20201;-89
2023/10/14 21:21:27;;;;;;;4.82;2.03;;;;;;;14.60;62.47;95380.06;6231173;22;20235;-90
2023/10/14 21:24:47;;;;;;;4.78;2.00;;;;;;;14.48;61.95;95345.41;6116043;23;20187;-90
2023/10/14 21:30:52;;;;;;;5.25;2.28;;;;;;;14.57;62.66;95370.09;6169437;22;20343;-90
2023/10/14 21:33:30;;;;;;;4.68;1.90;;;;;;;14.64;62.38;95357.09;6239789;22;20499;-90
2023/10/14 21:39:38;;;;;;;;;;;;;;;;;;;;;
2023/10/14 21:46:15;;;;;;;4.18;2.28;;;;;;;14.79;62.53;95357.66;6136946;23;20197;-90
2023/10/14 21:52:02;;;;;;;3.80;2.00;;;;;;;14.76;62.55;95348.47;6199336;23;20180;-90
2023/10/14 21:55:13;;;;;;;6.22;2.10;;;;;;;14.75;62.47;95359.84;6208963;23;20180;-90
2023/10/14 22:19:49;;;;;;;4.03;1.75;;;;;;;14.60;62.38;95353.34;5923060;24;20666;-90
2023/10/14 22:27:05;;;;;;;;;;;;;;;;;;;;;
2023/10/14 22:30:15;;;;;;;3.40;1.73;;;;;;;14.63;61.79;95327.81;5986373;23;20277;-89
2023/10/14 22:33:28;;;;;;;5.82;2.10;;;;;;;14.54;62.39;95344.59;6043713;23;20188;-90
2023/10/14 22:35:57;;;;;;;4.45;2.50;;;;;;;14.55;62.32;95353.16;6059855;23;20173;-89
2023/10/14 22:47:41;;;;;;;4.00;2.00;;;;;;;14.63;61.74;95321.81;6151908;23;20568;-89
2023/10/14 22:54:21;;;;;;;3.95;2.15;;;;;;;14.50;62.58;95354.59;6172243;23;20256;-89
2023/10/14 22:57:40;;;;;;;;;;;;;;;;;;;;;
2023/10/14 23:03:55;;;;;;;3.15;1.85;;;;;;;14.58;62.53;95371.69;6095255;23;20509;-91
2023/10/14 23:12:17;;;;;;;3.63;1.75;;;;;;;14.50;62.44;95346.81;6170004;23;20506;-89
2023/10/14 23:14:53;;;;;;;5.57;2.20;;;;;;;14.52;62.64;95334.44;6180126;23;20182;-89
2023/10/14 23:20:59;;;;;;;3.65;2.03;;;;;;;14.49;61.66;95293.41;6170209;23;20197;-89
2023/10/14 23:23:43;;;;;;;2.53;1.73;;;;;;;14.41;61.64;95304.03;6181574;23;20174;-89
2023/10/14 23:26:46;;;;;;;3.75;2.00;;;;;;;14.35;62.12;95306.59;6181602;23;20193;-89
2023/10/14 23:29:56;;;;;;;3.15;2.13;;;;;;;14.39;62.15;95311.19;6183205;23;20189;-89
2023/10/14 23:38:55;;;;;;;3.35;1.90;;;;;;;14.44;62.09;95319.13;6054957;23;20707;-90
2023/10/14 23:41:35;;;;;;;6.25;2.00;;;;;;;14.39;62.10;95318.16;6060316;23;20203;-89
